createdAt,value
2022-10-17T00:01:46.563Z,8.40
2022-10-17T00:04:13.402Z,10.23
2022-10-17T00:06:40.407Z,4.57
2022-10-17T00:09:07.262Z,11.88
2022-10-17T00:11:34.084Z,6.13
2022-10-17T00:14:00.790Z,9.75
2022-10-17T00:16:34.008Z,10.57
2022-10-17T00:19:01.174Z,14.83
2022-10-17T00:21:27.911Z,8.52
2022-10-17T00:23:55.013Z,9.23
2022-10-17T00:26:22.415Z,16.02
2022-10-17T00:28:50.453Z,4.45
2022-10-17T00:31:18.990Z,5.70
2022-10-17T00:33:45.988Z,3.42
2022-10-17T00:36:22.036Z,5.47
2022-10-17T00:38:52.612Z,7.50
2022-10-17T00:41:21.725Z,5.75
2022-10-17T00:44:01.470Z,9.30
2022-10-17T00:46:32.023Z,8.57
2022-10-17T00:49:04.966Z,5.93
2022-10-17T00:51:38.729Z,7.50
2022-10-17T00:54:06.679Z,4.00
2022-10-17T00:56:34.260Z,7.53
2022-10-17T00:59:01.368Z,3.40
2022-10-17T01:01:28.269Z,5.70
2022-10-17T01:03:55.009Z,7.97
2022-10-17T01:06:21.884Z,10.60
2022-10-17T01:08:48.808Z,7.38
2022-10-17T01:11:57.826Z,5.97
2022-10-17T01:14:27.559Z,11.75
2022-10-17T01:17:11.916Z,10.45
2022-10-17T01:20:29.645Z,4.70
2022-10-17T01:23:28.748Z,6.47
2022-10-17T01:26:11.923Z,6.53
2022-10-17T01:29:05.090Z,12.98
2022-10-17T01:31:45.932Z,6.13
2022-10-17T01:34:33.008Z,9.80
2022-10-17T01:37:06.825Z,6.50
2022-10-17T01:39:56.493Z,9.07
2022-10-17T01:42:23.251Z,6.95
2022-10-17T01:45:03.970Z,10.93
2022-10-17T01:47:33.639Z,12.10
2022-10-17T01:50:11.693Z,9.75
2022-10-17T01:52:55.596Z,12.52
2022-10-17T01:55:41.149Z,11.30
2022-10-17T01:58:14.056Z,6.15
2022-10-17T02:00:43.573Z,8.82
2022-10-17T02:03:16.933Z,6.38
2022-10-17T02:05:44.798Z,6.68
2022-10-17T02:08:12.399Z,8.98
2022-10-17T02:14:13.851Z,12.88
2022-10-17T02:16:53.890Z,9.70
2022-10-17T02:19:39.146Z,10.38
2022-10-17T02:22:25.096Z,14.40
2022-10-17T02:25:00.961Z,14.82
2022-10-17T02:27:40.026Z,11.88
2022-10-17T02:30:29.617Z,10.63
2022-10-17T02:33:02.298Z,14.85
2022-10-17T02:35:34.888Z,13.10
2022-10-17T02:38:04.979Z,16.35
2022-10-17T02:40:32.260Z,18.65
2022-10-17T02:43:01.036Z,12.93
2022-10-17T02:45:35.852Z,15.23
2022-10-17T02:48:10.992Z,13.45
2022-10-17T02:50:57.932Z,23.58
2022-10-17T02:53:32.682Z,23.23
2022-10-17T02:56:05.095Z,20.08
2022-10-17T02:58:35.729Z,12.45
2022-10-17T03:03:49.098Z,13.40
2022-10-17T03:06:15.998Z,21.27
2022-10-17T03:08:42.918Z,14.07
2022-10-17T03:11:09.752Z,13.88
2022-10-17T03:13:39.047Z,12.25
2022-10-17T03:16:07.092Z,16.60
2022-10-17T03:18:33.930Z,9.15
2022-10-17T03:21:02.772Z,14.50
2022-10-17T03:23:29.763Z,26.92
2022-10-17T03:25:56.822Z,15.60
2022-10-17T03:28:24.185Z,15.15
2022-10-17T03:30:51.058Z,20.50
2022-10-17T03:33:17.971Z,19.95
2022-10-17T03:35:44.699Z,14.30
2022-10-17T03:38:11.672Z,19.77
2022-10-17T03:40:38.538Z,15.63
2022-10-17T03:43:05.532Z,21.20
2022-10-17T03:45:32.893Z,24.05
2022-10-17T03:48:00.363Z,20.83
2022-10-17T03:50:27.192Z,15.13
2022-10-17T03:53:12.818Z,20.05
2022-10-17T03:55:39.659Z,23.40
2022-10-17T03:58:06.507Z,18.60
2022-10-17T04:00:35.612Z,31.48
2022-10-17T04:03:02.796Z,19.85
2022-10-17T04:05:29.552Z,22.05
2022-10-17T04:08:15.009Z,20.80
2022-10-17T04:11:10.665Z,26.60
2022-10-17T04:13:38.785Z,13.05
2022-10-17T04:16:10.617Z,18.00
2022-10-17T04:18:44.233Z,17.40
2022-10-17T04:21:12.649Z,23.20
2022-10-17T04:23:40.375Z,18.05
2022-10-17T04:26:17.887Z,22.67
2022-10-17T04:28:44.678Z,15.75
2022-10-17T04:31:14.026Z,24.10
2022-10-17T04:34:00.541Z,14.05
2022-10-17T04:36:47.167Z,14.60
2022-10-17T04:39:14.919Z,15.73
2022-10-17T04:42:00.379Z,12.25
2022-10-17T04:44:30.827Z,14.05
2022-10-17T04:46:58.558Z,18.35
2022-10-17T04:49:26.254Z,13.13
2022-10-17T04:51:57.067Z,6.35
2022-10-17T04:54:28.897Z,8.02
2022-10-17T04:57:03.101Z,11.95
2022-10-17T04:59:31.292Z,4.95
2022-10-17T05:02:12.169Z,9.48
2022-10-17T05:04:39.545Z,11.50
2022-10-17T05:07:06.698Z,12.63
2022-10-17T05:09:47.795Z,22.35
2022-10-17T05:12:16.663Z,15.70
2022-10-17T05:14:45.291Z,22.50
2022-10-17T05:17:12.481Z,17.08
2022-10-17T05:19:39.237Z,21.85
2022-10-17T05:22:07.215Z,35.25
2022-10-17T05:24:34.082Z,20.35
2022-10-17T05:27:00.925Z,21.33
2022-10-17T05:29:46.900Z,19.38
2022-10-17T05:32:23.234Z,16.08
2022-10-17T05:34:50.113Z,17.98
2022-10-17T05:37:17.388Z,17.52
2022-10-17T05:39:51.490Z,21.73
2022-10-17T05:42:19.706Z,28.77
2022-10-17T05:44:47.430Z,17.95
2022-10-17T05:47:16.524Z,24.25
2022-10-17T05:49:48.714Z,19.17
2022-10-17T05:52:20.287Z,20.30
2022-10-17T05:55:13.161Z,17.02
2022-10-17T05:57:40.499Z,21.65
2022-10-17T06:00:12.724Z,16.83
2022-10-17T06:02:46.031Z,15.30
2022-10-17T06:05:15.349Z,19.75
2022-10-17T06:07:42.218Z,7.20
2022-10-17T06:10:10.111Z,14.57
2022-10-17T06:12:37.075Z,17.27
2022-10-17T06:15:04.737Z,12.05
2022-10-17T06:17:31.560Z,14.13
2022-10-17T06:19:58.308Z,8.48
2022-10-17T06:22:25.192Z,8.52
2022-10-17T06:24:54.925Z,10.85
2022-10-17T06:27:22.804Z,6.55
2022-10-17T06:29:51.296Z,19.60
2022-10-17T06:32:18.128Z,7.25
2022-10-17T06:34:46.809Z,13.50
2022-10-17T06:37:14.905Z,10.02
2022-10-17T06:39:42.456Z,10.60
2022-10-17T06:42:34.136Z,8.68
2022-10-17T06:45:12.699Z,6.95
2022-10-17T06:47:54.598Z,8.25
2022-10-17T06:50:42.378Z,4.90
2022-10-17T06:53:33.020Z,7.20
2022-10-17T06:56:10.380Z,6.57
2022-10-17T06:59:00.175Z,12.52
2022-10-17T07:01:34.365Z,11.82
2022-10-17T07:04:03.673Z,12.50
2022-10-17T07:06:31.832Z,8.45
2022-10-17T07:09:06.749Z,4.00
2022-10-17T07:11:35.894Z,8.45
2022-10-17T07:14:02.889Z,6.72
2022-10-17T07:16:29.696Z,7.07
2022-10-17T07:19:03.976Z,3.85
2022-10-17T07:22:13.796Z,10.13
2022-10-17T07:25:03.641Z,5.55
2022-10-17T07:27:36.452Z,6.03
2022-10-17T07:30:23.825Z,7.68
2022-10-17T07:32:54.712Z,10.63
2022-10-17T07:35:22.208Z,6.70
2022-10-17T07:37:49.285Z,10.27
2022-10-17T07:40:19.021Z,4.60
2022-10-17T07:42:45.878Z,6.53
2022-10-17T07:45:32.364Z,7.03
2022-10-17T07:47:59.204Z,6.68
2022-10-17T07:50:26.180Z,9.75
2022-10-17T07:52:52.887Z,6.30
2022-10-17T07:55:20.580Z,6.50
2022-10-17T07:57:47.672Z,10.48
2022-10-17T08:00:14.624Z,7.57
2022-10-17T08:02:41.476Z,11.30
2022-10-17T08:05:08.543Z,15.25
2022-10-17T08:07:35.370Z,13.32
2022-10-17T08:10:02.189Z,6.35
2022-10-17T08:12:32.582Z,11.32
2022-10-17T08:15:00.225Z,14.23
2022-10-17T08:17:27.273Z,12.40
2022-10-17T08:19:54.261Z,10.38
2022-10-17T08:22:20.954Z,11.38
2022-10-17T08:24:47.995Z,6.85
2022-10-17T08:27:14.768Z,25.27
2022-10-17T08:30:01.061Z,6.53
2022-10-17T08:32:29.756Z,8.20
2022-10-17T08:34:56.614Z,5.07
2022-10-17T08:37:23.864Z,10.00
2022-10-17T08:39:50.750Z,6.30
2022-10-17T08:42:56.155Z,12.00
2022-10-17T08:46:00.441Z,9.48
2022-10-17T08:48:29.735Z,12.35
2022-10-17T08:51:17.425Z,14.10
2022-10-17T08:54:23.560Z,12.93
2022-10-17T08:56:51.599Z,15.15
2022-10-17T08:59:23.548Z,5.97
2022-10-17T09:02:19.480Z,16.42
2022-10-17T09:04:46.148Z,12.55
2022-10-17T09:07:34.307Z,11.07
2022-10-17T09:10:17.193Z,18.27
2022-10-17T09:13:25.670Z,15.90
2022-10-17T09:15:52.398Z,19.92
2022-10-17T09:18:29.164Z,17.35
2022-10-17T09:21:14.652Z,19.30
2022-10-17T09:24:09.645Z,21.33
2022-10-17T09:26:39.392Z,20.58
2022-10-17T09:29:22.113Z,20.38
2022-10-17T09:32:01.622Z,13.05
2022-10-17T09:34:31.226Z,14.05
2022-10-17T09:36:59.822Z,17.17
2022-10-17T09:39:29.242Z,17.65
2022-10-17T09:41:59.020Z,18.02
2022-10-17T09:44:49.164Z,19.17
2022-10-17T09:47:41.305Z,17.10
2022-10-17T09:50:28.661Z,27.77
2022-10-17T09:53:17.499Z,19.75
2022-10-17T09:55:49.263Z,15.60
2022-10-17T09:58:16.298Z,15.25
2022-10-17T10:00:45.583Z,17.50
2022-10-17T10:03:27.296Z,18.83
2022-10-17T10:06:00.200Z,22.90
2022-10-17T10:08:49.607Z,22.08
2022-10-17T10:11:17.805Z,19.63
2022-10-17T10:13:46.475Z,17.20
2022-10-17T10:16:31.131Z,15.00
2022-10-17T10:18:58.768Z,15.23
2022-10-17T10:21:54.836Z,20.92
2022-10-17T10:24:25.894Z,15.95
2022-10-17T10:27:00.227Z,18.70
2022-10-17T10:29:30.958Z,14.90
2022-10-17T10:32:16.470Z,14.52
2022-10-17T10:35:21.294Z,14.35
2022-10-17T10:37:57.679Z,18.38
2022-10-17T10:40:31.470Z,20.25
2022-10-17T10:43:04.885Z,17.98
2022-10-17T10:45:53.321Z,12.82
2022-10-17T10:48:21.778Z,17.73
2022-10-17T10:50:53.925Z,18.70
2022-10-17T10:53:32.921Z,20.77
2022-10-17T10:56:04.768Z,12.65
2022-10-17T10:58:43.497Z,21.65
2022-10-17T11:01:17.946Z,21.92
2022-10-17T11:04:02.822Z,18.30
2022-10-17T11:06:35.956Z,19.85
2022-10-17T11:09:36.534Z,18.10
2022-10-17T11:12:20.605Z,16.08
2022-10-17T11:14:56.597Z,20.65
2022-10-17T11:17:29.008Z,16.00
2022-10-17T11:20:15.305Z,15.05
2022-10-17T11:22:48.636Z,8.07
2022-10-17T11:25:29.873Z,12.15
2022-10-17T11:27:58.747Z,13.40
2022-10-17T11:33:51.371Z,10.15
2022-10-17T11:36:21.501Z,8.40
2022-10-17T11:38:58.536Z,9.43
2022-10-17T11:41:48.652Z,9.75
2022-10-17T11:44:26.841Z,7.57
2022-10-17T11:46:59.078Z,9.18
2022-10-17T11:49:36.969Z,8.48
2022-10-17T11:52:18.422Z,10.02
2022-10-17T11:55:02.181Z,7.63
2022-10-17T11:57:56.752Z,8.63
2022-10-17T12:00:49.109Z,7.00
2022-10-17T12:03:42.712Z,5.55
2022-10-17T12:06:31.171Z,9.23
2022-10-17T12:09:17.648Z,3.25
2022-10-17T12:12:02.444Z,7.30
2022-10-17T12:14:46.705Z,4.72
2022-10-17T12:17:34.951Z,8.50
2022-10-17T12:20:21.363Z,7.40
2022-10-17T12:22:49.890Z,5.55
2022-10-17T12:28:31.364Z,4.70
2022-10-17T12:31:19.027Z,9.20
2022-10-17T12:33:50.123Z,9.52
2022-10-17T12:36:17.136Z,7.47
2022-10-17T12:39:13.708Z,5.05
2022-10-17T12:41:40.704Z,6.25
2022-10-17T12:44:14.050Z,5.35
2022-10-17T12:46:44.413Z,5.88
2022-10-17T12:49:23.976Z,7.65
2022-10-17T12:52:17.952Z,7.63
2022-10-17T12:55:12.599Z,9.98
2022-10-17T12:57:49.790Z,10.73
2022-10-17T13:00:34.126Z,8.65
2022-10-17T13:03:12.288Z,7.30
2022-10-17T13:06:00.976Z,6.38
2022-10-17T13:08:55.350Z,9.00
2022-10-17T13:11:45.833Z,6.28
2022-10-17T13:14:32.701Z,5.05
2022-10-17T13:17:00.766Z,7.53
2022-10-17T13:19:31.589Z,7.13
2022-10-17T13:22:06.907Z,6.28
2022-10-17T13:24:37.494Z,9.82
2022-10-17T13:27:06.257Z,2.67
2022-10-17T13:29:33.655Z,6.35
2022-10-17T13:32:04.967Z,5.82
2022-10-17T13:34:33.572Z,4.90
2022-10-17T13:37:03.079Z,6.25
2022-10-17T13:39:54.442Z,6.00
2022-10-17T13:42:26.982Z,6.07
2022-10-17T13:44:55.134Z,7.32
2022-10-17T13:47:27.573Z,11.68
2022-10-17T13:50:39.591Z,3.47
2022-10-17T13:53:19.181Z,5.82
2022-10-17T13:56:16.157Z,7.88
2022-10-17T13:58:50.773Z,2.90
2022-10-17T14:01:20.269Z,6.80
2022-10-17T14:03:50.180Z,3.70
2022-10-17T14:06:29.760Z,6.07
2022-10-17T14:09:01.155Z,6.10
2022-10-17T14:11:41.608Z,5.07
2022-10-17T14:14:19.044Z,5.90
2022-10-17T14:16:46.048Z,9.93
2022-10-17T14:19:32.892Z,10.85
2022-10-17T14:22:27.004Z,4.18
2022-10-17T14:24:54.017Z,6.30
2022-10-17T14:27:29.375Z,5.90
2022-10-17T14:30:00.910Z,5.85
2022-10-17T14:32:30.983Z,5.05
2022-10-17T14:35:40.378Z,8.48
2022-10-17T14:38:07.170Z,5.68
2022-10-17T14:40:34.973Z,4.22
2022-10-17T14:43:06.101Z,4.75
2022-10-17T14:45:35.852Z,9.45
2022-10-17T14:48:16.421Z,5.53
2022-10-17T14:51:10.228Z,4.43
2022-10-17T14:54:05.747Z,6.40
2022-10-17T14:56:43.113Z,3.67
2022-10-17T14:59:13.810Z,1.90
2022-10-17T15:01:44.997Z,3.30
2022-10-17T15:04:11.733Z,4.47
2022-10-17T15:06:38.574Z,3.20
2022-10-17T15:09:05.271Z,4.60
2022-10-17T15:11:51.396Z,7.65
2022-10-17T15:14:18.149Z,4.22
2022-10-17T15:17:05.420Z,6.57
2022-10-17T15:19:32.164Z,4.00
2022-10-17T15:21:58.840Z,6.15
2022-10-17T15:24:25.555Z,4.10
2022-10-17T15:29:21.392Z,5.88
2022-10-17T15:31:48.151Z,4.10
2022-10-17T15:34:33.843Z,4.25
2022-10-17T15:37:00.916Z,6.82
2022-10-17T15:39:27.688Z,2.22
2022-10-17T15:41:54.456Z,4.05
2022-10-17T15:44:21.376Z,4.47
2022-10-17T15:46:48.141Z,3.72
2022-10-17T15:49:18.119Z,3.63
2022-10-17T15:52:04.248Z,1.92
2022-10-17T15:54:30.965Z,2.70
2022-10-17T15:56:58.012Z,1.98
2022-10-17T15:59:32.107Z,1.45
2022-10-17T16:01:58.956Z,2.85
2022-10-17T16:04:27.492Z,8.13
2022-10-17T16:06:54.242Z,4.00
2022-10-17T16:09:20.910Z,1.27
2022-10-17T16:11:47.646Z,0.75
2022-10-17T16:14:16.358Z,2.15
2022-10-17T16:16:43.334Z,1.83
2022-10-17T16:19:10.466Z,1.75
2022-10-17T16:21:40.026Z,2.97
2022-10-17T16:26:53.814Z,3.65
2022-10-17T16:32:04.725Z,1.92
2022-10-17T16:34:32.401Z,3.35
2022-10-17T16:37:18.740Z,0.80
2022-10-17T16:39:49.202Z,2.45
2022-10-17T16:42:16.010Z,2.25
2022-10-17T16:44:42.772Z,1.67
2022-10-17T16:47:09.671Z,1.83
2022-10-17T16:49:39.280Z,1.25
2022-10-17T16:54:53.237Z,2.78
2022-10-17T16:57:20.377Z,3.03
2022-10-17T17:00:07.185Z,1.98
2022-10-17T17:03:11.746Z,3.75
2022-10-17T17:05:38.533Z,2.70
2022-10-17T17:08:08.014Z,3.55
2022-10-17T17:10:43.469Z,5.07
2022-10-17T17:13:10.404Z,4.05
2022-10-17T17:15:38.481Z,6.32
2022-10-17T17:18:06.162Z,3.35
2022-10-17T17:20:33.976Z,3.67
2022-10-17T17:23:00.725Z,6.30
2022-10-17T17:25:27.497Z,6.68
2022-10-17T17:27:54.342Z,3.50
2022-10-17T17:30:21.035Z,1.95
2022-10-17T17:32:47.796Z,2.92
2022-10-17T17:38:03.000Z,4.55
2022-10-17T17:43:52.731Z,2.13
2022-10-17T17:46:21.019Z,1.70
2022-10-17T17:48:49.529Z,3.45
2022-10-17T17:51:19.788Z,4.60
2022-10-17T17:53:47.565Z,2.97
2022-10-17T17:56:17.137Z,4.63
2022-10-17T17:59:04.601Z,9.77
2022-10-17T18:01:37.908Z,7.57
2022-10-17T18:04:07.053Z,8.57
2022-10-17T18:06:34.015Z,12.23
2022-10-17T18:09:21.426Z,5.60
2022-10-17T18:12:06.317Z,4.32
2022-10-17T18:14:51.652Z,3.00
2022-10-17T18:17:18.401Z,2.42
2022-10-17T18:20:23.802Z,3.75
2022-10-17T18:22:50.565Z,2.50
2022-10-17T18:25:17.289Z,3.08
2022-10-17T18:27:44.081Z,2.17
2022-10-17T18:30:11.501Z,2.47
2022-10-17T18:32:38.324Z,3.33
2022-10-17T18:35:23.653Z,1.63
2022-10-17T18:37:50.546Z,7.45
2022-10-17T18:40:55.701Z,2.00
2022-10-17T18:43:22.457Z,1.58
2022-10-17T18:45:49.436Z,5.00
2022-10-17T18:48:54.052Z,11.60
2022-10-17T18:51:23.249Z,1.90
2022-10-17T18:53:52.668Z,2.33
2022-10-17T18:59:05.396Z,2.92
2022-10-17T19:01:52.141Z,1.20
2022-10-17T19:04:19.077Z,1.33
2022-10-17T19:06:45.854Z,1.05
2022-10-17T19:09:13.723Z,1.25
2022-10-17T19:11:42.063Z,0.75
2022-10-17T19:14:13.421Z,0.55
2022-10-17T19:16:49.446Z,1.17
2022-10-17T19:19:24.695Z,2.10
2022-10-17T19:21:52.697Z,0.80
2022-10-17T19:24:25.340Z,0.77
2022-10-17T19:26:54.854Z,0.40
2022-10-17T19:29:25.988Z,0.35
2022-10-17T19:31:53.453Z,0.35
2022-10-17T19:34:20.188Z,0.52
2022-10-17T19:36:47.060Z,2.78
2022-10-17T19:39:17.289Z,0.20
2022-10-17T19:41:46.453Z,0.73
2022-10-17T19:44:14.008Z,0.40
2022-10-17T19:47:00.194Z,0.32
2022-10-17T19:50:04.846Z,0.20
2022-10-17T19:52:31.985Z,0.75
2022-10-17T19:54:58.942Z,0.22
2022-10-17T19:57:25.875Z,0.35
2022-10-17T19:59:55.832Z,0.10
2022-10-17T20:02:23.429Z,1.98
2022-10-17T20:05:00.216Z,1.77
2022-10-17T20:07:37.018Z,1.10
2022-10-17T20:10:04.078Z,4.70
2022-10-17T20:12:31.234Z,2.35
2022-10-17T20:14:58.249Z,0.75
2022-10-17T20:17:25.756Z,1.95
2022-10-17T20:19:52.520Z,0.30
2022-10-17T20:22:19.223Z,0.75
2022-10-17T20:24:46.113Z,0.57
2022-10-17T20:27:12.797Z,0.20
2022-10-17T20:29:39.581Z,0.60
2022-10-17T20:32:06.462Z,1.27
2022-10-17T20:34:35.594Z,2.38
2022-10-17T20:37:02.717Z,0.28
2022-10-17T20:39:29.573Z,1.63
2022-10-17T20:42:15.114Z,1.45
2022-10-17T20:44:41.968Z,0.75
2022-10-17T20:47:16.246Z,1.83
2022-10-17T20:49:48.002Z,0.22
2022-10-17T20:52:15.195Z,3.50
2022-10-17T20:54:42.011Z,3.70
2022-10-17T20:57:09.191Z,2.28
2022-10-17T20:59:37.497Z,0.60
2022-10-17T21:02:05.628Z,2.03
2022-10-17T21:04:50.803Z,2.20
2022-10-17T21:07:17.557Z,1.60
2022-10-17T21:09:46.353Z,0.20
2022-10-17T21:12:50.152Z,0.90
2022-10-17T21:15:19.032Z,0.30
2022-10-17T21:17:45.762Z,0.63
2022-10-17T21:25:42.072Z,2.78
2022-10-17T21:28:08.815Z,4.85
2022-10-17T21:30:35.521Z,1.63
2022-10-17T21:33:21.282Z,0.52
2022-10-17T21:35:48.107Z,0.20
2022-10-17T21:38:14.849Z,1.20
2022-10-17T21:40:46.746Z,1.95
2022-10-17T21:43:14.241Z,1.77
2022-10-17T21:45:41.001Z,1.65
2022-10-17T21:48:15.002Z,3.25
2022-10-17T21:50:41.852Z,1.25
2022-10-17T21:53:08.571Z,2.60
2022-10-17T21:55:38.451Z,0.20
2022-10-17T21:58:05.381Z,3.00
2022-10-17T22:00:32.044Z,2.70
2022-10-17T22:02:58.873Z,1.20
2022-10-17T22:05:25.608Z,0.38
2022-10-17T22:07:52.589Z,3.38
2022-10-17T22:10:19.352Z,1.52
2022-10-17T22:12:46.188Z,0.88
2022-10-17T22:17:44.636Z,2.47
2022-10-17T22:20:11.469Z,0.90
2022-10-17T22:22:38.178Z,0.57
2022-10-17T22:25:05.427Z,0.60
2022-10-17T22:27:32.456Z,0.45
2022-10-17T22:29:59.484Z,2.33
2022-10-17T22:32:26.285Z,1.27
2022-10-17T22:34:53.008Z,1.20
2022-10-17T22:37:19.768Z,2.00
2022-10-17T22:39:46.551Z,3.28
2022-10-17T22:42:13.399Z,2.97
2022-10-17T22:44:40.123Z,1.25
2022-10-17T22:47:06.849Z,3.50
2022-10-17T22:49:33.805Z,1.00
2022-10-17T22:52:00.677Z,0.30
2022-10-17T22:58:07.973Z,1.75
2022-10-17T23:00:34.840Z,1.77
2022-10-17T23:03:01.617Z,1.52
2022-10-17T23:05:28.425Z,6.05
2022-10-17T23:07:55.229Z,2.90
2022-10-17T23:10:21.911Z,3.95
2022-10-17T23:12:48.631Z,1.85
2022-10-17T23:15:15.397Z,1.58
2022-10-17T23:17:42.153Z,0.90
2022-10-17T23:20:09.289Z,1.05
2022-10-17T23:22:36.037Z,0.63
2022-10-17T23:25:03.369Z,1.10
2022-10-17T23:27:48.695Z,1.75
2022-10-17T23:30:16.205Z,0.32
2022-10-17T23:32:42.948Z,0.52
2022-10-17T23:35:10.697Z,2.22
2022-10-17T23:37:38.010Z,2.33
2022-10-17T23:40:05.894Z,0.57
2022-10-17T23:42:32.652Z,0.38
2022-10-17T23:44:59.386Z,1.55
2022-10-17T23:47:26.132Z,1.73
2022-10-17T23:49:52.898Z,5.55
2022-10-17T23:52:19.644Z,1.58
2022-10-17T23:54:46.444Z,1.45
2022-10-17T23:57:13.246Z,1.25
2022-10-17T23:59:39.985Z,1.65
